createdAt,value
2022-10-17T00:07:53.284Z,11.58
2022-10-17T00:19:53.278Z,11.57
2022-10-17T00:43:53.232Z,11.56
2022-10-17T00:55:53.281Z,11.53
2022-10-17T01:07:53.163Z,11.53
2022-10-17T01:19:53.226Z,11.51
2022-10-17T01:31:53.271Z,11.49
2022-10-17T01:43:53.280Z,11.48
2022-10-17T01:55:53.328Z,11.48
2022-10-17T02:07:54.802Z,11.47
2022-10-17T02:19:53.280Z,11.44
2022-10-17T02:31:53.168Z,11.44
2022-10-17T02:43:53.170Z,11.42
2022-10-17T02:55:53.246Z,11.41
2022-10-17T03:07:53.275Z,11.39
2022-10-17T03:19:53.170Z,11.39
2022-10-17T03:31:53.285Z,11.36
2022-10-17T03:43:53.162Z,11.35
2022-10-17T03:55:53.285Z,11.35
2022-10-17T04:07:53.167Z,11.33
2022-10-17T04:19:53.284Z,11.32
2022-10-17T04:31:53.165Z,11.30
2022-10-17T04:43:53.167Z,11.30
2022-10-17T04:55:53.253Z,11.28
2022-10-17T05:07:53.162Z,11.26
2022-10-17T05:19:53.164Z,11.26
2022-10-17T05:31:53.202Z,11.24
2022-10-17T05:43:53.168Z,11.22
2022-10-17T05:55:53.253Z,11.21
2022-10-17T06:07:55.090Z,11.19
2022-10-17T06:19:53.300Z,11.19
2022-10-17T06:31:53.175Z,11.18
2022-10-17T06:43:53.174Z,11.17
2022-10-17T06:55:53.162Z,11.17
2022-10-17T07:07:53.255Z,11.15
2022-10-17T07:19:53.275Z,11.16
2022-10-17T07:31:53.234Z,11.20
2022-10-17T07:43:53.172Z,11.20
2022-10-17T07:55:53.284Z,11.22
2022-10-17T08:07:53.217Z,11.23
2022-10-17T08:19:53.171Z,11.26
2022-10-17T08:31:58.526Z,11.29
2022-10-17T08:43:53.256Z,11.35
2022-10-17T08:55:53.276Z,11.47
2022-10-17T09:07:53.246Z,11.50
2022-10-17T09:19:53.167Z,11.69
2022-10-17T09:31:53.196Z,11.62
2022-10-17T09:43:53.379Z,11.87
2022-10-17T09:55:53.252Z,11.91
2022-10-17T10:07:53.285Z,12.09
2022-10-17T10:19:53.176Z,12.13
2022-10-17T10:31:53.239Z,12.30
2022-10-17T10:43:53.167Z,12.36
2022-10-17T10:55:53.256Z,12.55
2022-10-17T11:07:53.276Z,12.58
2022-10-17T11:19:53.183Z,12.59
2022-10-17T11:31:53.169Z,12.60
2022-10-17T11:43:53.287Z,12.60
2022-10-17T11:55:53.259Z,12.60
2022-10-17T12:07:53.253Z,12.61
2022-10-17T12:19:53.286Z,12.59
2022-10-17T12:31:53.272Z,12.61
2022-10-17T12:43:53.315Z,12.59
2022-10-17T12:55:53.169Z,12.58
2022-10-17T13:07:53.288Z,12.58
2022-10-17T13:19:53.256Z,12.58
2022-10-17T13:31:53.362Z,12.58
2022-10-17T13:43:53.285Z,12.58
2022-10-17T13:56:09.362Z,12.55
2022-10-17T14:08:10.546Z,12.54
2022-10-17T14:20:05.860Z,12.54
2022-10-17T14:31:53.283Z,12.54
2022-10-17T14:43:53.277Z,12.53
2022-10-17T14:55:53.221Z,12.50
2022-10-17T15:07:53.234Z,12.50
2022-10-17T15:19:53.177Z,12.47
2022-10-17T15:31:53.235Z,12.46
2022-10-17T15:43:53.251Z,12.45
2022-10-17T15:55:53.245Z,12.42
2022-10-17T16:07:53.231Z,12.42
2022-10-17T16:19:53.167Z,12.39
2022-10-17T16:31:53.165Z,12.37
2022-10-17T16:43:53.274Z,12.37
2022-10-17T16:55:53.167Z,12.35
2022-10-17T17:07:53.170Z,12.34
2022-10-17T17:19:53.174Z,12.32
2022-10-17T17:31:53.166Z,12.30
2022-10-17T17:43:53.160Z,12.29
2022-10-17T17:55:53.249Z,12.26
2022-10-17T18:07:53.168Z,12.25
2022-10-17T18:19:53.166Z,12.24
2022-10-17T18:31:53.169Z,12.22
2022-10-17T18:43:53.168Z,12.21
2022-10-17T18:55:53.165Z,12.19
2022-10-17T19:07:53.161Z,12.19
2022-10-17T19:19:53.163Z,12.17
2022-10-17T19:31:53.222Z,12.14
2022-10-17T19:43:53.166Z,12.14
2022-10-17T19:55:53.164Z,12.12
2022-10-17T20:07:53.166Z,12.11
2022-10-17T20:19:53.162Z,12.09
2022-10-17T20:31:53.167Z,12.07
2022-10-17T20:43:53.168Z,12.07
2022-10-17T20:55:53.273Z,12.04
2022-10-17T21:07:53.326Z,12.03
2022-10-17T21:19:53.281Z,12.02
2022-10-17T21:31:53.177Z,12.00
2022-10-17T21:43:53.221Z,12.00
2022-10-17T21:55:53.252Z,11.98
2022-10-17T22:07:53.165Z,11.96
2022-10-17T22:19:53.411Z,11.95
2022-10-17T22:31:53.170Z,11.94
2022-10-17T22:43:53.160Z,11.92
2022-10-17T22:55:53.282Z,11.90
2022-10-17T23:07:53.258Z,11.89
2022-10-17T23:19:55.564Z,11.88
2022-10-17T23:31:53.165Z,11.87
2022-10-17T23:43:53.288Z,11.86
2022-10-17T23:55:53.247Z,11.85
